createdAt,value
2022-10-28T00:01:14.242Z,3.40
2022-10-28T00:03:43.557Z,4.03
2022-10-28T00:06:13.422Z,3.53
2022-10-28T00:08:40.945Z,3.58
2022-10-28T00:11:14.113Z,3.25
2022-10-28T00:13:45.531Z,3.33
2022-10-28T00:16:18.703Z,3.50
2022-10-28T00:18:46.562Z,3.85
2022-10-28T00:21:20.093Z,3.60
2022-10-28T00:23:47.567Z,3.60
2022-10-28T00:26:17.674Z,4.22
2022-10-28T00:29:01.129Z,3.78
2022-10-28T00:31:29.836Z,3.80
2022-10-28T00:33:59.228Z,3.97
2022-10-28T00:36:29.056Z,3.50
2022-10-28T00:38:56.863Z,3.70
2022-10-28T00:41:36.112Z,3.58
2022-10-28T00:44:41.175Z,4.10
2022-10-28T00:47:38.942Z,3.38
2022-10-28T00:50:15.105Z,3.42
2022-10-28T00:52:45.494Z,3.22
2022-10-28T00:55:17.998Z,3.40
2022-10-28T00:57:46.442Z,3.72
2022-10-28T01:00:14.541Z,3.60
2022-10-28T01:02:48.194Z,3.90
2022-10-28T01:05:20.801Z,3.87
2022-10-28T01:07:50.230Z,3.70
2022-10-28T01:10:18.184Z,3.42
2022-10-28T01:13:06.388Z,4.53
2022-10-28T01:16:03.060Z,3.40
2022-10-28T01:19:11.677Z,3.90
2022-10-28T01:21:41.749Z,3.25
2022-10-28T01:24:29.187Z,3.55
2022-10-28T01:27:17.323Z,3.50
2022-10-28T01:30:15.040Z,3.75
2022-10-28T01:33:08.778Z,3.83
2022-10-28T01:36:02.331Z,3.83
2022-10-28T01:38:53.776Z,3.67
2022-10-28T01:41:29.592Z,3.58
2022-10-28T01:44:22.957Z,3.22
2022-10-28T01:47:05.022Z,3.20
2022-10-28T01:49:39.375Z,3.20
2022-10-28T01:52:12.418Z,3.50
2022-10-28T01:54:46.267Z,3.72
2022-10-28T01:57:18.308Z,3.67
2022-10-28T01:59:47.205Z,3.30
2022-10-28T02:02:18.390Z,3.25
2022-10-28T02:04:45.529Z,2.92
2022-10-28T02:07:13.390Z,3.13
2022-10-28T02:10:14.452Z,3.20
2022-10-28T02:12:41.624Z,3.05
2022-10-28T02:15:29.420Z,3.60
2022-10-28T02:18:45.426Z,3.17
2022-10-28T02:21:27.229Z,3.25
2022-10-28T02:24:08.688Z,3.13
2022-10-28T02:26:40.931Z,3.78
2022-10-28T02:29:20.366Z,3.10
2022-10-28T02:31:53.468Z,3.67
2022-10-28T02:34:29.755Z,3.03
2022-10-28T02:37:01.097Z,3.53
2022-10-28T02:39:40.057Z,3.55
2022-10-28T02:42:11.035Z,3.80
2022-10-28T02:44:45.299Z,3.30
2022-10-28T02:47:19.474Z,3.23
2022-10-28T02:49:52.029Z,3.73
2022-10-28T02:52:21.930Z,4.18
2022-10-28T02:54:58.236Z,3.50
2022-10-28T02:57:33.074Z,3.70
2022-10-28T03:00:05.028Z,3.42
2022-10-28T03:02:32.560Z,3.43
2022-10-28T03:04:59.657Z,3.63
2022-10-28T03:07:28.865Z,3.57
2022-10-28T03:09:55.998Z,3.60
2022-10-28T03:12:28.266Z,3.42
2022-10-28T03:14:55.415Z,3.95
2022-10-28T03:17:22.533Z,3.70
2022-10-28T03:19:49.787Z,3.70
2022-10-28T03:22:16.875Z,3.63
2022-10-28T03:24:43.965Z,3.87
2022-10-28T03:27:13.115Z,3.40
2022-10-28T03:29:45.692Z,3.67
2022-10-28T03:32:13.715Z,3.77
2022-10-28T03:34:43.122Z,4.23
2022-10-28T03:37:10.316Z,3.90
2022-10-28T03:39:37.424Z,3.97
2022-10-28T03:42:04.638Z,3.28
2022-10-28T03:44:33.880Z,3.70
2022-10-28T03:47:00.976Z,3.77
2022-10-28T03:49:28.118Z,3.70
2022-10-28T03:51:55.200Z,4.18
2022-10-28T03:54:22.242Z,3.60
2022-10-28T03:56:49.369Z,3.60
2022-10-28T03:59:19.381Z,3.87
2022-10-28T04:01:50.190Z,3.95
2022-10-28T04:04:17.362Z,3.90
2022-10-28T04:06:44.465Z,4.00
2022-10-28T04:09:13.995Z,4.40
2022-10-28T04:11:43.267Z,3.70
2022-10-28T04:14:10.533Z,3.90
2022-10-28T04:16:37.606Z,4.40
2022-10-28T04:19:04.758Z,4.53
2022-10-28T04:21:31.844Z,4.03
2022-10-28T04:23:59.267Z,4.50
2022-10-28T04:26:28.526Z,3.75
2022-10-28T04:28:57.880Z,3.93
2022-10-28T04:31:25.018Z,3.87
2022-10-28T04:33:52.159Z,4.10
2022-10-28T04:36:19.368Z,4.40
2022-10-28T04:38:46.688Z,3.93
2022-10-28T04:41:14.943Z,4.27
2022-10-28T04:43:42.049Z,4.50
2022-10-28T04:46:09.554Z,4.47
2022-10-28T04:48:36.737Z,4.00
2022-10-28T04:51:04.032Z,4.37
2022-10-28T04:53:33.266Z,3.83
2022-10-28T04:56:02.833Z,3.80
2022-10-28T04:58:29.980Z,4.27
2022-10-28T05:00:57.185Z,4.73
2022-10-28T05:03:26.771Z,4.57
2022-10-28T05:05:56.325Z,5.17
2022-10-28T05:08:23.498Z,4.30
2022-10-28T05:10:52.928Z,4.30
2022-10-28T05:13:20.614Z,5.57
2022-10-28T05:15:50.475Z,4.90
2022-10-28T05:18:19.680Z,4.50
2022-10-28T05:20:46.886Z,3.80
2022-10-28T05:23:14.000Z,4.10
2022-10-28T05:25:42.877Z,4.10
2022-10-28T05:28:10.003Z,3.93
2022-10-28T05:30:37.936Z,4.10
2022-10-28T05:33:05.141Z,4.80
2022-10-28T05:35:32.474Z,5.40
2022-10-28T05:37:59.783Z,4.57
2022-10-28T05:40:27.021Z,4.77
2022-10-28T05:42:54.426Z,4.97
2022-10-28T05:45:21.828Z,4.53
2022-10-28T05:47:49.161Z,4.25
2022-10-28T05:50:18.994Z,4.30
2022-10-28T05:53:04.273Z,4.60
2022-10-28T05:55:35.294Z,4.53
2022-10-28T05:58:03.158Z,4.93
2022-10-28T06:00:33.084Z,4.93
2022-10-28T06:03:11.999Z,4.23
2022-10-28T06:05:45.823Z,3.93
2022-10-28T06:08:13.678Z,4.13
2022-10-28T06:10:41.751Z,4.20
2022-10-28T06:13:10.452Z,3.83
2022-10-28T06:15:37.718Z,4.30
2022-10-28T06:18:05.029Z,4.33
2022-10-28T06:20:32.223Z,4.53
2022-10-28T06:23:01.493Z,4.40
2022-10-28T06:25:28.583Z,4.63
2022-10-28T06:28:01.052Z,4.60
2022-10-28T06:30:28.270Z,4.35
2022-10-28T06:32:56.340Z,4.57
2022-10-28T06:35:23.636Z,4.80
2022-10-28T06:37:55.249Z,4.60
2022-10-28T06:40:24.587Z,4.53
2022-10-28T06:42:59.671Z,4.73
2022-10-28T06:45:27.680Z,4.63
2022-10-28T06:48:01.133Z,4.47
2022-10-28T06:50:29.350Z,4.90
2022-10-28T06:52:57.424Z,4.83
2022-10-28T06:55:30.475Z,4.00
2022-10-28T06:58:01.736Z,4.22
2022-10-28T07:00:33.328Z,4.15
2022-10-28T07:03:00.900Z,4.28
2022-10-28T07:05:28.576Z,4.28
2022-10-28T07:07:58.083Z,4.83
2022-10-28T07:10:25.342Z,4.77
2022-10-28T07:12:53.912Z,4.80
2022-10-28T07:15:23.563Z,4.10
2022-10-28T07:17:54.831Z,4.10
2022-10-28T07:20:22.863Z,4.67
2022-10-28T07:22:59.831Z,4.30
2022-10-28T07:25:28.538Z,3.90
2022-10-28T07:27:57.977Z,4.40
2022-10-28T07:30:25.728Z,4.50
2022-10-28T07:32:55.426Z,4.27
2022-10-28T07:35:22.859Z,4.50
2022-10-28T07:37:52.512Z,4.43
2022-10-28T07:40:21.316Z,4.50
2022-10-28T07:42:48.472Z,4.17
2022-10-28T07:45:16.418Z,4.07
2022-10-28T07:47:46.571Z,5.05
2022-10-28T07:50:13.807Z,4.67
2022-10-28T07:52:41.090Z,4.95
2022-10-28T07:55:08.692Z,4.35
2022-10-28T07:57:35.881Z,5.03
2022-10-28T08:00:04.817Z,4.10
2022-10-28T08:02:34.259Z,3.90
2022-10-28T08:05:04.047Z,4.57
2022-10-28T08:07:34.786Z,4.43
2022-10-28T08:10:05.468Z,4.77
2022-10-28T08:12:32.572Z,5.10
2022-10-28T08:14:59.749Z,4.60
2022-10-28T08:17:26.888Z,4.93
2022-10-28T08:19:54.007Z,5.18
2022-10-28T08:22:21.291Z,4.28
2022-10-28T08:24:48.430Z,4.82
2022-10-28T08:27:15.522Z,5.22
2022-10-28T08:29:44.717Z,4.43
2022-10-28T08:32:11.872Z,4.70
2022-10-28T08:34:42.492Z,4.15
2022-10-28T08:37:11.039Z,4.22
2022-10-28T08:39:40.251Z,4.45
2022-10-28T08:42:28.063Z,4.80
2022-10-28T08:45:30.405Z,4.88
2022-10-28T08:48:06.255Z,4.75
2022-10-28T08:50:46.745Z,4.47
2022-10-28T08:53:21.636Z,4.57
2022-10-28T08:55:54.116Z,4.22
2022-10-28T08:58:33.408Z,4.90
2022-10-28T09:01:01.362Z,5.15
2022-10-28T09:03:39.173Z,4.30
2022-10-28T09:06:12.743Z,4.72
2022-10-28T09:08:45.221Z,4.32
2022-10-28T09:11:27.478Z,4.43
2022-10-28T09:14:13.605Z,4.50
2022-10-28T09:16:47.877Z,4.82
2022-10-28T09:19:44.449Z,4.30
2022-10-28T09:22:23.563Z,4.30
2022-10-28T09:25:06.285Z,5.00
2022-10-28T09:28:03.281Z,4.13
2022-10-28T09:30:39.947Z,4.05
2022-10-28T09:33:37.638Z,4.35
2022-10-28T09:36:11.517Z,4.25
2022-10-28T09:38:39.073Z,4.38
2022-10-28T09:41:25.772Z,4.35
2022-10-28T09:44:07.242Z,4.30
2022-10-28T09:46:37.151Z,4.47
2022-10-28T09:49:14.135Z,4.50
2022-10-28T09:52:22.167Z,3.85
2022-10-28T09:54:54.238Z,3.90
2022-10-28T09:57:24.037Z,4.15
2022-10-28T09:59:51.521Z,4.15
2022-10-28T10:02:42.790Z,4.13
2022-10-28T10:05:17.554Z,4.05
2022-10-28T10:08:05.129Z,3.92
2022-10-28T10:10:54.588Z,3.88
2022-10-28T10:13:41.841Z,4.05
2022-10-28T10:16:40.720Z,4.47
2022-10-28T10:19:11.061Z,4.15
2022-10-28T10:21:43.286Z,4.15
2022-10-28T10:24:28.787Z,3.95
2022-10-28T10:26:58.055Z,3.75
2022-10-28T10:29:25.618Z,3.75
2022-10-28T10:32:34.101Z,3.22
2022-10-28T10:35:06.816Z,3.78
2022-10-28T10:37:36.130Z,4.25
2022-10-28T10:40:06.121Z,4.45
2022-10-28T10:42:39.147Z,3.60
2022-10-28T10:45:16.632Z,3.50
2022-10-28T10:47:43.750Z,3.55
2022-10-28T10:50:34.153Z,4.55
2022-10-28T10:53:01.747Z,4.40
2022-10-28T10:55:32.697Z,4.40
2022-10-28T10:58:00.701Z,3.58
2022-10-28T11:00:37.545Z,4.28
2022-10-28T11:03:36.898Z,3.90
2022-10-28T11:06:24.269Z,3.40
2022-10-28T11:09:00.920Z,3.60
2022-10-28T11:11:40.534Z,3.40
2022-10-28T11:14:10.387Z,3.63
2022-10-28T11:16:47.992Z,4.03
2022-10-28T11:19:23.674Z,3.35
2022-10-28T11:21:54.935Z,3.33
2022-10-28T11:24:22.119Z,3.33
2022-10-28T11:27:01.933Z,3.72
2022-10-28T11:29:29.194Z,3.88
2022-10-28T11:32:26.156Z,3.55
2022-10-28T11:35:03.210Z,3.88
2022-10-28T11:38:00.464Z,4.07
2022-10-28T11:41:11.613Z,3.60
2022-10-28T11:43:50.862Z,3.60
2022-10-28T11:46:46.996Z,3.45
2022-10-28T11:49:38.186Z,3.58
2022-10-28T11:52:29.955Z,3.58
2022-10-28T11:55:38.170Z,3.47
2022-10-28T11:58:34.349Z,3.42
2022-10-28T12:01:19.577Z,3.85
2022-10-28T12:03:49.731Z,4.30
2022-10-28T12:06:22.907Z,3.50
2022-10-28T12:09:18.611Z,3.95
2022-10-28T12:12:06.761Z,3.70
2022-10-28T12:14:51.697Z,3.67
2022-10-28T12:17:38.552Z,3.97
2022-10-28T12:20:17.864Z,3.70
2022-10-28T12:23:00.850Z,5.43
2022-10-28T12:25:35.840Z,3.20
2022-10-28T12:30:51.589Z,4.35
2022-10-28T12:33:42.242Z,4.32
2022-10-28T12:36:09.961Z,4.30
2022-10-28T12:38:45.230Z,4.00
2022-10-28T12:41:18.959Z,3.55
2022-10-28T12:43:52.065Z,3.45
2022-10-28T12:46:30.735Z,3.42
2022-10-28T12:49:11.112Z,3.78
2022-10-28T12:51:40.862Z,3.13
2022-10-28T12:54:36.628Z,3.20
2022-10-28T12:57:16.127Z,4.00
2022-10-28T12:59:52.891Z,3.75
2022-10-28T13:02:37.527Z,3.42
2022-10-28T13:05:15.905Z,3.20
2022-10-28T13:07:58.755Z,3.90
2022-10-28T13:10:43.510Z,3.10
2022-10-28T13:13:21.810Z,3.10
2022-10-28T13:16:10.129Z,2.60
2022-10-28T13:19:24.190Z,2.75
2022-10-28T13:22:00.429Z,3.40
2022-10-28T13:24:46.039Z,3.40
2022-10-28T13:27:17.266Z,3.47
2022-10-28T13:29:51.529Z,3.42
2022-10-28T13:32:35.771Z,2.97
2022-10-28T13:35:20.104Z,3.15
2022-10-28T13:37:49.143Z,3.05
2022-10-28T13:40:36.453Z,2.60
2022-10-28T13:43:03.699Z,3.25
2022-10-28T13:45:48.912Z,3.53
2022-10-28T13:48:41.054Z,3.00
2022-10-28T13:51:11.143Z,3.08
2022-10-28T13:53:47.389Z,3.30
2022-10-28T13:56:44.720Z,3.38
2022-10-28T13:59:14.877Z,3.22
2022-10-28T14:01:42.064Z,3.33
2022-10-28T14:04:26.612Z,4.40
2022-10-28T14:07:06.461Z,4.03
2022-10-28T14:09:35.708Z,3.53
2022-10-28T14:12:16.609Z,3.75
2022-10-28T14:14:58.355Z,3.38
2022-10-28T14:17:35.709Z,3.40
2022-10-28T14:20:05.700Z,3.13
2022-10-28T14:22:36.990Z,3.35
2022-10-28T14:25:44.423Z,3.55
2022-10-28T14:28:29.590Z,4.35
2022-10-28T14:31:11.860Z,3.22
2022-10-28T14:33:41.284Z,3.05
2022-10-28T14:36:17.643Z,2.97
2022-10-28T14:39:12.642Z,2.97
2022-10-28T14:42:01.083Z,3.67
2022-10-28T14:44:47.640Z,2.70
2022-10-28T14:47:38.207Z,3.80
2022-10-28T14:50:07.377Z,3.10
2022-10-28T14:52:37.428Z,3.75
2022-10-28T14:55:07.713Z,3.63
2022-10-28T14:57:35.168Z,3.50
2022-10-28T15:00:05.644Z,3.03
2022-10-28T15:02:35.780Z,2.92
2022-10-28T15:05:24.757Z,3.60
2022-10-28T15:07:57.906Z,2.90
2022-10-28T15:10:38.316Z,3.33
2022-10-28T15:13:16.682Z,3.50
2022-10-28T15:15:53.797Z,3.67
2022-10-28T15:18:25.996Z,3.08
2022-10-28T15:21:10.755Z,3.10
2022-10-28T15:23:38.179Z,3.55
2022-10-28T15:26:16.294Z,3.55
2022-10-28T15:28:43.697Z,3.40
2022-10-28T15:31:11.048Z,4.00
2022-10-28T15:33:40.700Z,3.20
2022-10-28T15:36:20.769Z,3.65
2022-10-28T15:39:08.378Z,3.55
2022-10-28T15:41:43.945Z,3.40
2022-10-28T15:44:38.469Z,3.40
2022-10-28T15:47:38.096Z,3.42
2022-10-28T15:50:17.563Z,3.72
2022-10-28T15:52:50.233Z,3.92
2022-10-28T15:55:35.922Z,4.10
2022-10-28T15:58:19.424Z,3.78
2022-10-28T16:00:54.746Z,3.92
2022-10-28T16:03:26.414Z,3.78
2022-10-28T16:05:59.061Z,3.63
2022-10-28T16:08:30.967Z,3.17
2022-10-28T16:11:06.785Z,3.45
2022-10-28T16:13:41.879Z,3.55
2022-10-28T16:16:15.355Z,3.78
2022-10-28T16:18:48.080Z,3.63
2022-10-28T16:21:27.476Z,3.50
2022-10-28T16:23:59.078Z,4.07
2022-10-28T16:26:27.351Z,3.70
2022-10-28T16:28:54.926Z,3.10
2022-10-28T16:31:25.105Z,4.00
2022-10-28T16:33:52.240Z,4.28
2022-10-28T16:36:19.314Z,3.72
2022-10-28T16:38:46.465Z,3.85
2022-10-28T16:41:18.661Z,3.60
2022-10-28T16:43:46.234Z,3.88
2022-10-28T16:46:14.085Z,3.70
2022-10-28T16:48:41.761Z,4.38
2022-10-28T16:51:13.973Z,4.20
2022-10-28T16:53:46.937Z,4.13
2022-10-28T16:56:17.900Z,3.90
2022-10-28T16:58:46.192Z,4.25
2022-10-28T17:01:21.448Z,4.10
2022-10-28T17:03:48.588Z,4.00
2022-10-28T17:06:15.952Z,4.70
2022-10-28T17:14:04.663Z,3.90
2022-10-28T17:16:31.792Z,4.57
2022-10-28T17:18:58.948Z,4.15
2022-10-28T17:21:28.495Z,4.43
2022-10-28T17:23:58.231Z,4.03
2022-10-28T17:26:25.481Z,4.70
2022-10-28T17:28:52.881Z,4.95
2022-10-28T17:31:23.924Z,4.70
2022-10-28T17:33:55.871Z,5.05
2022-10-28T17:36:25.313Z,5.60
2022-10-28T17:38:54.718Z,5.68
2022-10-28T17:41:24.085Z,4.57
2022-10-28T17:43:54.887Z,4.45
2022-10-28T17:46:22.448Z,4.32
2022-10-28T17:48:49.836Z,4.57
2022-10-28T17:51:21.029Z,5.13
2022-10-28T17:53:53.870Z,4.57
2022-10-28T17:56:21.387Z,4.25
2022-10-28T17:58:48.537Z,4.90
2022-10-28T18:01:15.804Z,4.38
2022-10-28T18:03:43.113Z,4.88
2022-10-28T18:06:13.406Z,4.25
2022-10-28T18:08:43.874Z,4.85
2022-10-28T18:11:17.064Z,4.55
2022-10-28T18:13:45.634Z,5.32
2022-10-28T18:16:15.151Z,4.55
2022-10-28T18:18:42.999Z,4.78
2022-10-28T18:21:14.341Z,5.63
2022-10-28T18:23:41.584Z,5.03
2022-10-28T18:26:15.418Z,5.00
2022-10-28T18:28:44.256Z,4.72
2022-10-28T18:31:19.311Z,4.80
2022-10-28T18:33:49.164Z,5.20
2022-10-28T18:36:23.842Z,5.18
2022-10-28T18:38:53.345Z,5.72
2022-10-28T18:41:25.919Z,6.03
2022-10-28T18:43:57.767Z,6.10
2022-10-28T18:46:28.818Z,5.25
2022-10-28T18:51:31.918Z,5.78
2022-10-28T18:53:59.221Z,5.43
2022-10-28T18:56:31.494Z,5.68
2022-10-28T18:59:01.653Z,5.65
2022-10-28T19:01:30.013Z,5.32
2022-10-28T19:04:02.530Z,5.65
2022-10-28T19:06:32.679Z,6.13
2022-10-28T19:09:02.681Z,6.13
2022-10-28T19:11:31.370Z,5.57
2022-10-28T19:14:00.383Z,5.80
2022-10-28T19:16:28.788Z,5.88
2022-10-28T19:18:57.686Z,6.03
2022-10-28T19:21:25.831Z,5.88
2022-10-28T19:23:53.512Z,5.70
2022-10-28T19:26:20.780Z,6.15
2022-10-28T19:28:49.003Z,5.93
2022-10-28T19:31:21.172Z,5.47
2022-10-28T19:33:49.357Z,5.65
2022-10-28T19:36:26.897Z,5.88
2022-10-28T19:38:55.116Z,6.05
2022-10-28T19:41:27.601Z,5.85
2022-10-28T19:43:58.317Z,6.07
2022-10-28T19:46:27.541Z,6.57
2022-10-28T19:48:58.746Z,6.63
2022-10-28T19:51:31.451Z,5.80
2022-10-28T19:54:01.165Z,5.93
2022-10-28T19:56:30.373Z,5.57
2022-10-28T19:58:59.734Z,5.72
2022-10-28T20:01:32.853Z,5.22
2022-10-28T20:04:00.686Z,5.50
2022-10-28T20:06:31.757Z,5.63
2022-10-28T20:09:01.539Z,5.63
2022-10-28T20:11:34.281Z,5.60
2022-10-28T20:14:04.347Z,5.50
2022-10-28T20:16:32.858Z,6.10
2022-10-28T20:19:00.301Z,6.45
2022-10-28T20:21:30.416Z,6.60
2022-10-28T20:23:58.202Z,5.88
2022-10-28T20:26:30.820Z,6.68
2022-10-28T20:29:03.691Z,6.35
2022-10-28T20:31:32.299Z,6.38
2022-10-28T20:34:03.483Z,6.68
2022-10-28T20:36:35.835Z,7.05
2022-10-28T20:39:18.702Z,6.45
2022-10-28T20:41:47.529Z,7.30
2022-10-28T20:44:17.373Z,6.97
2022-10-28T20:46:48.050Z,6.53
2022-10-28T20:49:17.900Z,6.53
2022-10-28T20:51:47.184Z,6.55
2022-10-28T20:54:14.313Z,7.63
2022-10-28T20:56:43.481Z,8.13
2022-10-28T20:59:10.733Z,7.45
2022-10-28T21:01:40.359Z,7.20
2022-10-28T21:04:11.673Z,7.43
2022-10-28T21:06:39.508Z,6.38
2022-10-28T21:09:07.117Z,7.15
2022-10-28T21:11:34.281Z,7.03
2022-10-28T21:14:03.553Z,7.30
2022-10-28T21:16:31.222Z,7.10
2022-10-28T21:18:59.405Z,7.15
2022-10-28T21:21:26.931Z,6.68
2022-10-28T21:23:54.222Z,6.18
2022-10-28T21:26:21.838Z,7.05
2022-10-28T21:28:50.215Z,7.35
2022-10-28T21:31:18.261Z,7.53
2022-10-28T21:33:45.955Z,6.70
2022-10-28T21:36:16.126Z,10.85
2022-10-28T21:38:45.668Z,9.52
2022-10-28T21:41:18.764Z,8.30
2022-10-28T21:43:48.484Z,7.47
2022-10-28T21:46:17.009Z,7.13
2022-10-28T21:48:44.306Z,6.68
2022-10-28T21:51:14.530Z,7.18
2022-10-28T21:53:42.933Z,7.13
2022-10-28T21:56:19.272Z,7.20
2022-10-28T21:58:48.533Z,7.13
2022-10-28T22:01:21.588Z,6.85
2022-10-28T22:03:50.408Z,6.65
2022-10-28T22:06:17.614Z,7.60
2022-10-28T22:08:44.929Z,7.22
2022-10-28T22:11:15.188Z,7.60
2022-10-28T22:13:42.845Z,7.25
2022-10-28T22:16:16.507Z,8.50
2022-10-28T22:18:44.438Z,17.27
2022-10-28T22:21:22.745Z,19.88
2022-10-28T22:23:50.962Z,13.48
2022-10-28T22:26:20.353Z,11.75
2022-10-28T22:28:48.207Z,10.23
2022-10-28T22:31:20.891Z,8.77
2022-10-28T22:33:48.635Z,8.60
2022-10-28T22:36:20.780Z,7.95
2022-10-28T22:38:50.693Z,7.63
2022-10-28T22:41:23.560Z,7.80
2022-10-28T22:44:00.579Z,7.53
2022-10-28T22:46:31.719Z,7.38
2022-10-28T22:48:58.955Z,7.25
2022-10-28T22:51:28.382Z,6.65
2022-10-28T22:53:55.601Z,7.57
2022-10-28T22:56:24.665Z,7.88
2022-10-28T22:58:57.115Z,7.40
2022-10-28T23:01:29.056Z,7.75
2022-10-28T23:03:59.232Z,7.70
2022-10-28T23:06:30.807Z,6.60
2022-10-28T23:08:58.057Z,6.65
2022-10-28T23:11:25.255Z,6.90
2022-10-28T23:13:53.736Z,6.70
2022-10-28T23:16:21.896Z,6.70
2022-10-28T23:18:56.252Z,6.80
2022-10-28T23:21:25.457Z,7.88
2022-10-28T23:24:00.109Z,7.13
2022-10-28T23:26:29.266Z,6.72
2022-10-28T23:29:00.846Z,7.07
2022-10-28T23:31:28.731Z,6.72
2022-10-28T23:33:56.543Z,7.43
2022-10-28T23:36:25.928Z,6.65
2022-10-28T23:38:53.942Z,6.57
2022-10-28T23:41:21.250Z,6.40
2022-10-28T23:43:50.927Z,6.72
2022-10-28T23:46:21.130Z,6.90
2022-10-28T23:48:48.352Z,6.57
2022-10-28T23:51:15.600Z,6.45
2022-10-28T23:53:42.701Z,6.90
2022-10-28T23:56:10.354Z,7.05
2022-10-28T23:58:37.471Z,6.60
